createdAt,value
2023-01-26T00:01:32.725Z,32.35
2023-01-26T00:04:00.185Z,31.83
2023-01-26T00:06:27.712Z,30.95
2023-01-26T00:08:59.430Z,29.85
2023-01-26T00:11:29.330Z,29.23
2023-01-26T00:13:58.708Z,30.50
2023-01-26T00:16:27.417Z,25.85
2023-01-26T00:18:55.018Z,37.10
2023-01-26T00:21:24.409Z,33.00
2023-01-26T00:23:52.982Z,30.65
2023-01-26T00:26:23.879Z,30.58
2023-01-26T00:28:52.118Z,31.65
2023-01-26T00:31:25.642Z,30.27
2023-01-26T00:33:55.164Z,29.10
2023-01-26T00:36:23.063Z,24.20
2023-01-26T00:38:50.526Z,27.55
2023-01-26T00:41:36.592Z,41.05
2023-01-26T00:44:04.167Z,40.75
2023-01-26T00:46:31.783Z,30.00
2023-01-26T00:49:01.128Z,35.25
2023-01-26T00:51:28.692Z,26.48
2023-01-26T00:53:57.343Z,33.65
2023-01-26T00:56:27.926Z,28.02
2023-01-26T00:58:55.615Z,26.15
2023-01-26T01:01:23.245Z,25.67
2023-01-26T01:03:52.127Z,41.63
2023-01-26T01:06:19.585Z,30.30
2023-01-26T01:08:47.309Z,26.17
2023-01-26T01:11:15.072Z,28.15
2023-01-26T01:13:42.569Z,36.10
2023-01-26T01:16:12.741Z,31.77
2023-01-26T01:18:40.761Z,40.95
2023-01-26T01:21:12.585Z,29.60
2023-01-26T01:23:40.429Z,39.50
2023-01-26T01:26:08.989Z,35.45
2023-01-26T01:28:37.387Z,36.13
2023-01-26T01:33:33.378Z,34.05
2023-01-26T01:36:03.297Z,34.42
2023-01-26T01:38:31.260Z,40.08
2023-01-26T01:40:59.212Z,35.30
2023-01-26T01:43:27.944Z,38.08
2023-01-26T01:45:56.044Z,48.75
2023-01-26T01:51:37.232Z,23.02
2023-01-26T01:54:13.890Z,46.53
2023-01-26T01:56:48.344Z,50.20
2023-01-26T01:59:20.598Z,44.85
2023-01-26T02:01:51.964Z,40.50
2023-01-26T02:04:21.474Z,38.25
2023-01-26T02:06:51.751Z,39.38
2023-01-26T02:09:44.405Z,45.03
2023-01-26T02:12:14.871Z,34.28
2023-01-26T02:14:42.619Z,39.33
2023-01-26T02:17:10.505Z,32.50
2023-01-26T02:19:57.714Z,42.80
2023-01-26T02:25:07.684Z,38.40
2023-01-26T02:27:35.259Z,34.20
2023-01-26T02:30:05.018Z,45.47
2023-01-26T02:32:33.199Z,42.47
2023-01-26T02:35:00.953Z,42.58
2023-01-26T02:37:28.528Z,49.92
2023-01-26T02:40:01.816Z,44.05
2023-01-26T02:42:38.543Z,40.70
2023-01-26T02:45:07.089Z,39.30
2023-01-26T02:47:34.810Z,46.22
2023-01-26T02:50:05.334Z,45.28
2023-01-26T02:52:33.776Z,54.67
2023-01-26T02:55:30.805Z,37.58
2023-01-26T02:58:04.941Z,39.67
2023-01-26T03:00:41.921Z,41.95
2023-01-26T03:03:26.613Z,55.42
2023-01-26T03:05:54.212Z,39.75
2023-01-26T03:08:21.714Z,47.53
2023-01-26T03:10:49.150Z,49.88
2023-01-26T03:13:18.245Z,53.28
2023-01-26T03:15:52.742Z,54.08
2023-01-26T03:18:42.175Z,51.65
2023-01-26T03:21:35.158Z,48.90
2023-01-26T03:24:21.610Z,50.67
2023-01-26T03:27:08.549Z,47.33
2023-01-26T03:29:36.745Z,46.75
2023-01-26T03:32:04.396Z,45.85
2023-01-26T03:34:32.301Z,50.38
2023-01-26T03:37:00.304Z,51.25
2023-01-26T03:39:53.603Z,50.00
2023-01-26T03:42:40.046Z,49.97
2023-01-26T03:45:26.489Z,49.85
2023-01-26T03:48:21.048Z,51.17
2023-01-26T03:51:07.047Z,51.42
2023-01-26T03:53:53.074Z,57.35
2023-01-26T03:56:24.537Z,49.17
2023-01-26T03:59:12.244Z,51.53
2023-01-26T04:02:04.154Z,48.00
2023-01-26T04:04:51.609Z,53.00
2023-01-26T04:07:40.464Z,55.20
2023-01-26T04:10:08.710Z,48.92
2023-01-26T04:12:36.454Z,45.05
2023-01-26T04:15:33.033Z,54.03
2023-01-26T04:18:25.593Z,52.70
2023-01-26T04:21:11.912Z,43.55
2023-01-26T04:23:41.830Z,51.03
2023-01-26T04:26:09.713Z,55.40
2023-01-26T04:28:38.267Z,46.78
2023-01-26T04:31:06.455Z,44.67
2023-01-26T04:33:36.887Z,48.28
2023-01-26T04:36:07.149Z,39.70
2023-01-26T04:38:37.494Z,56.38
2023-01-26T04:41:05.238Z,49.78
2023-01-26T04:43:39.196Z,42.63
2023-01-26T04:46:08.456Z,50.63
2023-01-26T04:48:38.533Z,42.53
2023-01-26T04:51:11.232Z,58.20
2023-01-26T04:53:39.310Z,43.53
2023-01-26T04:56:09.726Z,48.40
2023-01-26T04:58:37.247Z,45.38
2023-01-26T05:01:04.770Z,33.83
2023-01-26T05:03:32.849Z,49.20
2023-01-26T05:06:00.507Z,51.08
2023-01-26T05:08:27.983Z,48.40
2023-01-26T05:10:55.524Z,52.95
2023-01-26T05:13:26.314Z,40.40
2023-01-26T05:16:06.131Z,44.65
2023-01-26T05:18:54.107Z,47.67
2023-01-26T05:21:40.343Z,53.37
2023-01-26T05:24:08.540Z,50.38
2023-01-26T05:27:23.713Z,46.70
2023-01-26T05:30:01.288Z,59.28
2023-01-26T05:32:31.852Z,41.60
2023-01-26T05:34:59.543Z,43.95
2023-01-26T05:37:28.543Z,51.15
2023-01-26T05:39:59.564Z,57.00
2023-01-26T05:42:27.524Z,52.50
2023-01-26T05:45:00.862Z,59.03
2023-01-26T05:47:29.756Z,58.03
2023-01-26T05:49:58.380Z,51.17
2023-01-26T05:52:29.216Z,61.20
2023-01-26T05:54:56.776Z,47.35
2023-01-26T05:57:25.189Z,47.13
2023-01-26T06:00:00.295Z,43.95
2023-01-26T06:02:28.039Z,38.10
2023-01-26T06:04:56.011Z,46.55
2023-01-26T06:07:23.876Z,49.00
2023-01-26T06:10:06.408Z,43.95
2023-01-26T06:12:52.251Z,42.25
2023-01-26T06:15:39.960Z,41.83
2023-01-26T06:18:08.273Z,45.10
2023-01-26T06:20:37.217Z,44.20
2023-01-26T06:23:11.681Z,41.60
2023-01-26T06:25:39.881Z,39.67
2023-01-26T06:28:08.172Z,40.10
2023-01-26T06:30:36.285Z,55.35
2023-01-26T06:33:08.015Z,47.58
2023-01-26T06:35:38.037Z,40.20
2023-01-26T06:38:10.472Z,54.78
2023-01-26T06:40:38.011Z,35.67
2023-01-26T06:43:06.809Z,50.30
2023-01-26T06:45:37.484Z,41.88
2023-01-26T06:48:05.231Z,60.70
2023-01-26T06:50:36.727Z,50.00
2023-01-26T06:53:26.536Z,45.65
2023-01-26T06:56:12.826Z,57.00
2023-01-26T06:58:55.644Z,44.45
2023-01-26T07:01:44.377Z,42.53
2023-01-26T07:04:11.956Z,38.72
2023-01-26T07:06:39.399Z,47.90
2023-01-26T07:09:06.969Z,48.20
2023-01-26T07:11:34.404Z,49.80
2023-01-26T07:14:01.906Z,49.42
2023-01-26T07:16:31.944Z,34.22
2023-01-26T07:19:01.280Z,41.80
2023-01-26T07:21:28.962Z,46.55
2023-01-26T07:23:56.620Z,42.97
2023-01-26T07:26:24.215Z,42.75
2023-01-26T07:28:51.696Z,36.03
2023-01-26T07:31:19.392Z,39.55
2023-01-26T07:33:46.902Z,36.78
2023-01-26T07:36:14.570Z,36.42
2023-01-26T07:38:42.111Z,35.35
2023-01-26T07:41:11.857Z,32.75
2023-01-26T07:43:40.306Z,43.33
2023-01-26T07:46:11.144Z,30.15
2023-01-26T07:53:39.541Z,35.90
2023-01-26T07:56:16.026Z,41.15
2023-01-26T07:58:43.514Z,40.92
2023-01-26T08:01:15.060Z,33.28
2023-01-26T08:03:45.428Z,39.67
2023-01-26T08:06:14.706Z,44.60
2023-01-26T08:08:43.288Z,42.55
2023-01-26T08:11:11.941Z,35.45
2023-01-26T08:13:39.444Z,40.92
2023-01-26T08:16:12.678Z,40.10
2023-01-26T08:18:42.253Z,36.45
2023-01-26T08:21:11.174Z,32.85
2023-01-26T08:23:41.288Z,35.03
2023-01-26T08:26:11.485Z,28.58
2023-01-26T08:28:39.404Z,32.30
2023-01-26T08:31:12.845Z,29.63
2023-01-26T08:33:42.709Z,31.27
2023-01-26T08:36:15.265Z,28.63
2023-01-26T08:38:43.816Z,34.95
2023-01-26T08:41:12.333Z,40.70
2023-01-26T08:43:40.593Z,34.38
2023-01-26T08:46:09.126Z,30.23
2023-01-26T08:48:37.364Z,30.48
2023-01-26T08:51:06.650Z,34.13
2023-01-26T08:53:36.214Z,27.35
2023-01-26T08:56:08.940Z,35.30
2023-01-26T08:58:36.929Z,44.70
2023-01-26T09:01:11.269Z,38.70
2023-01-26T09:03:39.354Z,35.63
2023-01-26T09:06:08.516Z,34.95
2023-01-26T09:08:36.370Z,42.22
2023-01-26T09:11:06.624Z,42.90
2023-01-26T09:13:34.317Z,37.05
2023-01-26T09:16:07.187Z,37.83
2023-01-26T09:18:34.969Z,40.22
2023-01-26T09:21:06.994Z,47.20
2023-01-26T09:23:35.540Z,35.20
2023-01-26T09:26:03.684Z,31.48
2023-01-26T09:31:06.850Z,35.65
2023-01-26T09:33:34.643Z,34.42
2023-01-26T09:36:11.044Z,40.75
2023-01-26T09:38:39.046Z,38.95
2023-01-26T09:41:34.107Z,38.83
2023-01-26T09:44:08.268Z,43.95
2023-01-26T09:46:44.644Z,39.15
2023-01-26T09:49:26.720Z,35.55
2023-01-26T09:52:14.405Z,35.83
2023-01-26T09:54:56.239Z,33.08
2023-01-26T09:57:31.547Z,32.45
2023-01-26T10:00:09.260Z,38.50
2023-01-26T10:03:17.560Z,38.30
2023-01-26T10:06:00.820Z,44.35
2023-01-26T10:08:47.781Z,31.23
2023-01-26T10:11:27.469Z,37.80
2023-01-26T10:14:04.508Z,43.80
2023-01-26T10:16:34.281Z,46.85
2023-01-26T10:19:42.391Z,41.92
2023-01-26T10:22:27.826Z,37.80
2023-01-26T10:24:57.082Z,37.67
2023-01-26T10:27:24.532Z,39.80
2023-01-26T10:29:51.950Z,37.05
2023-01-26T10:32:19.592Z,36.78
2023-01-26T10:34:49.591Z,42.92
2023-01-26T10:37:22.980Z,33.05
2023-01-26T10:40:02.363Z,31.13
2023-01-26T10:42:36.376Z,43.20
2023-01-26T10:45:25.878Z,29.60
2023-01-26T10:48:16.583Z,38.80
2023-01-26T10:50:44.959Z,41.92
2023-01-26T10:53:19.139Z,38.60
2023-01-26T10:56:03.264Z,44.53
2023-01-26T10:58:59.322Z,40.30
2023-01-26T11:01:29.683Z,41.30
2023-01-26T11:04:07.258Z,30.85
2023-01-26T11:06:35.459Z,44.58
2023-01-26T11:09:14.891Z,44.95
2023-01-26T11:11:42.455Z,45.42
2023-01-26T11:14:16.943Z,45.33
2023-01-26T11:16:50.631Z,43.00
2023-01-26T11:19:26.873Z,38.50
2023-01-26T11:21:59.366Z,45.13
2023-01-26T11:24:32.015Z,38.58
2023-01-26T11:27:29.958Z,33.13
2023-01-26T11:30:32.180Z,38.15
2023-01-26T11:33:23.645Z,35.40
2023-01-26T11:36:17.244Z,44.03
2023-01-26T11:39:10.524Z,32.88
2023-01-26T11:42:13.202Z,36.15
2023-01-26T11:44:55.498Z,29.85
2023-01-26T11:47:42.001Z,33.83
2023-01-26T11:50:43.044Z,41.38
2023-01-26T11:53:42.924Z,30.48
2023-01-26T11:56:31.843Z,36.53
2023-01-26T11:59:06.590Z,34.08
2023-01-26T12:01:40.024Z,32.45
2023-01-26T12:04:18.588Z,30.45
2023-01-26T12:06:53.576Z,36.17
2023-01-26T12:09:36.568Z,34.88
2023-01-26T12:12:31.274Z,39.53
2023-01-26T12:15:38.092Z,32.22
2023-01-26T12:18:10.256Z,32.53
2023-01-26T12:20:45.968Z,28.88
2023-01-26T12:23:49.200Z,34.00
2023-01-26T12:26:19.483Z,33.88
2023-01-26T12:29:09.305Z,40.67
2023-01-26T12:32:04.096Z,37.10
2023-01-26T12:34:34.069Z,30.38
2023-01-26T12:37:23.342Z,33.70
2023-01-26T12:40:00.960Z,34.50
2023-01-26T12:42:58.049Z,33.58
2023-01-26T12:45:32.545Z,30.58
2023-01-26T12:48:07.873Z,29.02
2023-01-26T12:50:47.734Z,35.10
2023-01-26T12:53:49.230Z,29.35
2023-01-26T12:56:30.352Z,33.38
2023-01-26T12:58:59.805Z,27.40
2023-01-26T13:01:38.956Z,31.27
2023-01-26T13:04:12.314Z,30.15
2023-01-26T13:06:40.133Z,28.00
2023-01-26T13:09:27.582Z,32.60
2023-01-26T13:11:57.058Z,26.98
2023-01-26T13:14:36.625Z,32.15
2023-01-26T13:17:16.359Z,26.85
2023-01-26T13:19:44.027Z,30.00
2023-01-26T13:22:24.052Z,25.48
2023-01-26T13:24:56.466Z,33.30
2023-01-26T13:28:00.356Z,35.65
2023-01-26T13:30:44.894Z,26.20
2023-01-26T13:33:24.457Z,29.42
2023-01-26T13:35:55.098Z,28.77
2023-01-26T13:38:29.128Z,28.52
2023-01-26T13:40:57.017Z,35.10
2023-01-26T13:43:32.833Z,32.92
2023-01-26T13:46:15.203Z,24.30
2023-01-26T13:48:53.756Z,27.67
2023-01-26T13:51:37.277Z,32.75
2023-01-26T13:54:15.311Z,33.58
2023-01-26T13:59:12.868Z,31.40
2023-01-26T14:01:52.359Z,30.15
2023-01-26T14:04:25.191Z,35.50
2023-01-26T14:07:06.104Z,28.77
2023-01-26T14:09:48.269Z,30.73
2023-01-26T14:12:29.473Z,26.25
2023-01-26T14:15:00.787Z,22.00
2023-01-26T14:17:31.430Z,19.52
2023-01-26T14:20:03.713Z,21.27
2023-01-26T14:22:31.539Z,23.48
2023-01-26T14:24:59.058Z,24.63
2023-01-26T14:27:38.869Z,22.10
2023-01-26T14:30:26.503Z,24.52
2023-01-26T14:33:07.723Z,18.15
2023-01-26T14:35:35.174Z,23.15
2023-01-26T14:38:11.780Z,25.90
2023-01-26T14:40:46.440Z,29.95
2023-01-26T14:43:14.679Z,29.52
2023-01-26T14:46:08.916Z,29.63
2023-01-26T14:48:44.778Z,33.50
2023-01-26T14:51:20.434Z,26.35
2023-01-26T14:53:54.414Z,30.27
2023-01-26T14:56:31.608Z,25.83
2023-01-26T14:58:59.184Z,32.17
2023-01-26T15:01:27.900Z,35.83
2023-01-26T15:04:03.806Z,36.63
2023-01-26T15:06:32.548Z,34.85
2023-01-26T15:09:26.727Z,21.20
2023-01-26T15:12:17.543Z,24.25
2023-01-26T15:14:51.270Z,27.77
2023-01-26T15:17:39.325Z,19.95
2023-01-26T15:20:15.022Z,16.65
2023-01-26T15:22:50.323Z,18.40
2023-01-26T15:25:21.069Z,23.17
2023-01-26T15:27:58.772Z,24.42
2023-01-26T15:32:58.935Z,29.52
2023-01-26T15:35:29.495Z,30.42
2023-01-26T15:38:04.471Z,31.20
2023-01-26T15:40:32.389Z,32.17
2023-01-26T15:43:20.112Z,31.92
2023-01-26T15:45:59.974Z,28.02
2023-01-26T15:48:31.645Z,29.83
2023-01-26T15:50:59.137Z,36.33
2023-01-26T15:53:27.091Z,31.45
2023-01-26T15:55:56.035Z,36.70
2023-01-26T15:58:24.803Z,31.00
2023-01-26T16:00:53.269Z,30.15
2023-01-26T16:03:22.479Z,31.13
2023-01-26T16:05:50.137Z,32.80
2023-01-26T16:08:19.008Z,26.75
2023-01-26T16:10:47.288Z,29.60
2023-01-26T16:15:46.661Z,34.72
2023-01-26T16:18:14.556Z,27.80
2023-01-26T16:20:43.949Z,34.38
2023-01-26T16:23:22.916Z,22.58
2023-01-26T16:25:53.036Z,29.25
2023-01-26T16:28:21.008Z,32.83
2023-01-26T16:30:50.851Z,31.17
2023-01-26T16:33:25.952Z,32.92
2023-01-26T16:35:54.639Z,33.95
2023-01-26T16:38:22.200Z,33.25
2023-01-26T16:40:49.871Z,29.73
2023-01-26T16:43:24.068Z,36.92
2023-01-26T16:45:52.771Z,26.98
2023-01-26T16:48:21.533Z,28.83
2023-01-26T16:50:52.929Z,22.92
2023-01-26T16:53:32.941Z,26.52
2023-01-26T16:56:00.557Z,22.15
2023-01-26T16:58:32.525Z,15.80
2023-01-26T17:01:00.450Z,19.10
2023-01-26T17:03:27.966Z,22.15
2023-01-26T17:05:56.499Z,24.40
2023-01-26T17:08:24.014Z,20.13
2023-01-26T17:11:01.717Z,20.92
2023-01-26T17:13:33.293Z,20.15
2023-01-26T17:16:00.828Z,25.65
2023-01-26T17:18:28.505Z,24.73
2023-01-26T17:21:02.189Z,27.27
2023-01-26T17:23:29.607Z,26.60
2023-01-26T17:26:00.689Z,23.67
2023-01-26T17:28:28.201Z,26.33
2023-01-26T17:30:55.633Z,22.05
2023-01-26T17:33:23.112Z,29.02
2023-01-26T17:36:00.002Z,23.05
2023-01-26T17:38:27.551Z,32.50
2023-01-26T17:40:56.393Z,24.83
2023-01-26T17:43:24.598Z,21.17
2023-01-26T17:48:19.728Z,26.77
2023-01-26T17:50:50.926Z,27.75
2023-01-26T17:53:18.789Z,25.45
2023-01-26T17:55:46.418Z,31.45
2023-01-26T17:58:13.831Z,23.75
2023-01-26T18:00:42.066Z,30.90
2023-01-26T18:03:10.732Z,23.65
2023-01-26T18:05:38.167Z,28.73
2023-01-26T18:08:05.721Z,25.73
2023-01-26T18:10:33.320Z,29.00
2023-01-26T18:13:00.822Z,28.83
2023-01-26T18:15:28.236Z,36.70
2023-01-26T18:17:55.670Z,31.75
2023-01-26T18:20:23.261Z,28.65
2023-01-26T18:22:50.734Z,32.88
2023-01-26T18:25:20.558Z,31.58
2023-01-26T18:27:48.301Z,43.00
2023-01-26T18:30:15.993Z,34.83
2023-01-26T18:32:43.584Z,25.65
2023-01-26T18:35:11.893Z,35.38
2023-01-26T18:37:39.498Z,31.20
2023-01-26T18:40:08.289Z,23.05
2023-01-26T18:42:35.756Z,24.70
2023-01-26T18:45:03.462Z,27.10
2023-01-26T18:47:32.282Z,23.98
2023-01-26T18:49:59.850Z,28.05
2023-01-26T18:52:28.577Z,23.20
2023-01-26T18:54:57.647Z,23.70
2023-01-26T18:57:25.112Z,19.80
2023-01-26T18:59:52.517Z,23.85
2023-01-26T19:02:19.986Z,26.80
2023-01-26T19:04:47.409Z,17.40
2023-01-26T19:07:15.305Z,18.23
2023-01-26T19:09:42.759Z,21.45
2023-01-26T19:12:10.664Z,24.98
2023-01-26T19:14:38.291Z,18.40
2023-01-26T19:17:05.762Z,18.52
2023-01-26T19:19:33.268Z,20.35
2023-01-26T19:22:00.723Z,13.70
2023-01-26T19:24:28.272Z,13.90
2023-01-26T19:26:55.809Z,12.93
2023-01-26T19:29:23.437Z,16.60
2023-01-26T19:31:51.009Z,14.88
2023-01-26T19:34:19.851Z,17.02
2023-01-26T19:36:53.328Z,12.45
2023-01-26T19:39:20.804Z,15.98
2023-01-26T19:41:48.614Z,20.67
2023-01-26T19:44:16.175Z,10.50
2023-01-26T19:46:43.663Z,20.85
2023-01-26T19:49:13.399Z,12.13
2023-01-26T19:51:40.913Z,17.38
2023-01-26T19:54:08.979Z,14.13
2023-01-26T19:59:10.160Z,20.20
2023-01-26T20:01:38.535Z,12.02
2023-01-26T20:06:39.599Z,13.23
2023-01-26T20:09:07.888Z,12.93
2023-01-26T20:11:35.820Z,11.63
2023-01-26T20:14:08.633Z,14.68
2023-01-26T20:16:36.865Z,8.88
2023-01-26T20:21:35.331Z,14.00
2023-01-26T20:24:06.743Z,11.70
2023-01-26T20:26:35.366Z,10.93
2023-01-26T20:29:03.414Z,9.68
2023-01-26T20:31:32.674Z,11.57
2023-01-26T20:34:01.586Z,11.43
2023-01-26T20:36:29.369Z,8.10
2023-01-26T20:38:57.311Z,17.40
2023-01-26T20:41:27.425Z,13.57
2023-01-26T20:44:00.434Z,5.88
2023-01-26T20:46:31.926Z,9.73
2023-01-26T20:48:59.808Z,9.25
2023-01-26T20:51:30.540Z,8.77
2023-01-26T20:53:58.350Z,8.23
2023-01-26T20:56:26.364Z,9.05
2023-01-26T20:58:54.913Z,6.10
2023-01-26T21:01:23.529Z,10.43
2023-01-26T21:03:51.608Z,9.00
2023-01-26T21:06:20.581Z,4.70
2023-01-26T21:08:49.731Z,9.80
2023-01-26T21:11:23.775Z,5.20
2023-01-26T21:13:52.045Z,10.15
2023-01-26T21:16:19.827Z,14.77
2023-01-26T21:18:47.602Z,8.00
2023-01-26T21:21:18.980Z,11.18
2023-01-26T21:23:46.862Z,10.65
2023-01-26T21:26:21.897Z,7.00
2023-01-26T21:28:51.476Z,10.80
2023-01-26T21:31:20.760Z,9.70
2023-01-26T21:33:49.224Z,8.98
2023-01-26T21:36:19.807Z,8.90
2023-01-26T21:38:50.815Z,13.48
2023-01-26T21:41:48.601Z,7.10
2023-01-26T21:46:49.993Z,11.98
2023-01-26T21:49:17.973Z,10.85
2023-01-26T21:52:03.954Z,14.93
2023-01-26T21:54:32.130Z,15.15
2023-01-26T21:59:28.806Z,13.77
2023-01-26T22:01:57.916Z,11.90
2023-01-26T22:04:30.160Z,13.35
2023-01-26T22:06:58.126Z,13.38
2023-01-26T22:09:25.693Z,11.23
2023-01-26T22:11:53.087Z,8.52
2023-01-26T22:14:23.064Z,12.80
2023-01-26T22:16:50.773Z,7.00
2023-01-26T22:19:21.022Z,10.23
2023-01-26T22:21:48.540Z,14.07
2023-01-26T22:24:17.921Z,12.82
2023-01-26T22:26:45.512Z,11.82
2023-01-26T22:29:13.202Z,14.85
2023-01-26T22:31:41.744Z,11.00
2023-01-26T22:34:11.376Z,11.25
2023-01-26T22:36:40.248Z,9.25
2023-01-26T22:39:12.188Z,13.60
2023-01-26T22:41:43.177Z,14.95
2023-01-26T22:44:11.276Z,13.60
2023-01-26T22:49:06.137Z,12.35
2023-01-26T22:51:37.075Z,15.85
2023-01-26T22:54:05.479Z,11.98
2023-01-26T22:56:33.761Z,11.98
2023-01-26T22:59:01.233Z,13.93
2023-01-26T23:01:31.296Z,14.88
2023-01-26T23:03:59.740Z,12.60
2023-01-26T23:06:27.904Z,18.42
2023-01-26T23:11:28.207Z,15.77
2023-01-26T23:13:57.552Z,12.55
2023-01-26T23:16:25.892Z,16.02
2023-01-26T23:18:55.423Z,13.15
2023-01-26T23:21:23.897Z,13.45
2023-01-26T23:23:51.413Z,12.73
2023-01-26T23:26:19.007Z,11.43
2023-01-26T23:28:46.817Z,14.75
2023-01-26T23:31:16.523Z,17.33
2023-01-26T23:33:44.172Z,13.90
2023-01-26T23:36:13.184Z,15.75
2023-01-26T23:38:40.738Z,11.18
2023-01-26T23:41:11.942Z,17.35
2023-01-26T23:43:39.678Z,13.73
2023-01-26T23:46:08.528Z,9.85
2023-01-26T23:48:36.160Z,15.18
2023-01-26T23:51:07.479Z,14.70
2023-01-26T23:53:35.222Z,15.73
2023-01-26T23:56:07.424Z,15.63
2023-01-26T23:58:37.264Z,22.38
